createdAt,value
2022-10-29T00:00:30.078Z,93.30
2022-10-29T00:02:59.202Z,93.54
2022-10-29T00:05:28.835Z,93.36
2022-10-29T00:08:00.667Z,93.26
2022-10-29T00:10:31.213Z,93.44
2022-10-29T00:13:03.475Z,93.42
2022-10-29T00:15:42.543Z,93.37
2022-10-29T00:18:11.203Z,93.26
2022-10-29T00:20:39.854Z,93.48
2022-10-29T00:23:08.536Z,93.74
2022-10-29T00:25:37.267Z,93.52
2022-10-29T00:28:06.010Z,93.44
2022-10-29T00:30:36.444Z,93.34
2022-10-29T00:33:06.649Z,93.62
2022-10-29T00:35:35.411Z,93.25
2022-10-29T00:38:04.154Z,93.60
2022-10-29T00:40:36.890Z,93.33
2022-10-29T00:43:20.451Z,93.26
2022-10-29T00:45:54.792Z,93.80
2022-10-29T00:48:28.717Z,93.71
2022-10-29T00:51:00.106Z,94.02
2022-10-29T00:53:34.613Z,93.77
2022-10-29T00:56:04.111Z,93.77
2022-10-29T00:58:33.461Z,93.72
2022-10-29T01:01:02.590Z,93.66
2022-10-29T01:03:32.728Z,93.68
2022-10-29T01:06:03.370Z,93.81
2022-10-29T01:08:32.092Z,93.98
2022-10-29T01:11:16.210Z,94.06
2022-10-29T01:14:06.881Z,94.01
2022-10-29T01:16:58.833Z,94.66
2022-10-29T01:19:56.740Z,94.66
2022-10-29T01:22:33.309Z,95.18
2022-10-29T01:25:48.227Z,94.83
2022-10-29T01:28:36.352Z,94.87
2022-10-29T01:31:21.281Z,95.55
2022-10-29T01:34:02.470Z,96.04
2022-10-29T01:36:41.856Z,96.14
2022-10-29T01:39:23.265Z,96.37
2022-10-29T01:42:02.373Z,96.30
2022-10-29T01:44:38.521Z,96.02
2022-10-29T01:47:16.852Z,96.37
2022-10-29T01:49:51.593Z,96.26
2022-10-29T01:52:24.422Z,96.90
2022-10-29T01:54:53.435Z,97.21
2022-10-29T01:57:32.671Z,96.73
2022-10-29T02:00:07.732Z,96.78
2022-10-29T02:03:05.400Z,96.73
2022-10-29T02:05:40.346Z,96.91
2022-10-29T02:08:30.469Z,96.82
2022-10-29T02:11:10.779Z,96.61
2022-10-29T02:13:46.048Z,96.66
2022-10-29T02:16:15.759Z,96.47
2022-10-29T02:18:49.279Z,96.94
2022-10-29T02:21:19.054Z,96.85
2022-10-29T02:23:48.839Z,96.77
2022-10-29T02:26:18.029Z,96.56
2022-10-29T02:28:46.834Z,96.66
2022-10-29T02:31:15.596Z,96.68
2022-10-29T02:33:45.767Z,96.89
2022-10-29T02:36:14.496Z,96.85
2022-10-29T02:38:43.459Z,96.88
2022-10-29T02:41:12.215Z,96.94
2022-10-29T02:43:43.050Z,97.39
2022-10-29T02:46:14.549Z,97.44
2022-10-29T02:48:43.867Z,97.33
2022-10-29T02:51:14.856Z,97.26
2022-10-29T02:53:43.742Z,97.17
2022-10-29T02:56:12.944Z,97.53
2022-10-29T02:58:41.754Z,97.87
2022-10-29T03:01:10.450Z,97.90
2022-10-29T03:03:39.304Z,97.71
2022-10-29T03:06:16.298Z,97.49
2022-10-29T03:08:45.732Z,97.17
2022-10-29T03:11:15.253Z,97.47
2022-10-29T03:13:44.575Z,97.49
2022-10-29T03:16:13.307Z,97.27
2022-10-29T03:18:41.962Z,97.60
2022-10-29T03:21:10.972Z,97.46
2022-10-29T03:23:41.182Z,97.16
2022-10-29T03:26:11.966Z,96.92
2022-10-29T03:28:40.760Z,97.10
2022-10-29T03:31:09.410Z,96.71
2022-10-29T03:33:38.263Z,96.31
2022-10-29T03:36:09.047Z,96.46
2022-10-29T03:38:37.734Z,96.03
2022-10-29T03:41:10.686Z,95.89
2022-10-29T03:43:40.422Z,95.89
2022-10-29T03:46:09.396Z,95.54
2022-10-29T03:48:38.343Z,95.52
2022-10-29T03:51:08.428Z,95.25
2022-10-29T03:53:38.142Z,95.18
2022-10-29T03:56:08.753Z,94.91
2022-10-29T03:58:37.526Z,94.79
2022-10-29T04:01:09.071Z,94.90
2022-10-29T04:03:42.463Z,94.92
2022-10-29T04:06:13.688Z,95.21
2022-10-29T04:08:52.003Z,95.65
2022-10-29T04:11:22.578Z,95.74
2022-10-29T04:13:54.693Z,95.54
2022-10-29T04:16:23.496Z,95.72
2022-10-29T04:18:52.325Z,95.45
2022-10-29T04:29:49.575Z,95.51
2022-10-29T04:32:18.249Z,95.41
2022-10-29T04:34:47.472Z,95.48
2022-10-29T04:37:16.278Z,95.73
2022-10-29T04:39:45.107Z,95.81
2022-10-29T04:42:15.218Z,95.61
2022-10-29T04:44:43.884Z,95.61
2022-10-29T04:47:12.595Z,95.91
2022-10-29T04:49:41.384Z,96.02
2022-10-29T04:52:10.061Z,95.49
2022-10-29T04:54:38.859Z,95.11
2022-10-29T04:57:07.538Z,94.80
2022-10-29T04:59:37.692Z,94.52
2022-10-29T05:02:06.460Z,94.38
2022-10-29T05:04:35.211Z,94.28
2022-10-29T05:07:03.972Z,94.86
2022-10-29T05:09:32.657Z,94.96
2022-10-29T05:12:01.314Z,95.01
2022-10-29T05:14:30.008Z,94.91
2022-10-29T05:17:00.092Z,94.57
2022-10-29T05:19:28.896Z,95.20
2022-10-29T05:21:57.522Z,94.97
2022-10-29T05:24:51.796Z,94.96
2022-10-29T05:27:20.506Z,95.10
2022-10-29T05:29:49.066Z,94.89
2022-10-29T05:32:19.117Z,95.04
2022-10-29T05:34:54.086Z,94.86
2022-10-29T05:37:25.545Z,95.12
2022-10-29T05:39:54.230Z,95.05
2022-10-29T05:42:22.868Z,94.80
2022-10-29T05:44:51.595Z,94.71
2022-10-29T05:47:26.626Z,94.48
2022-10-29T05:49:55.381Z,94.95
2022-10-29T05:52:25.269Z,94.75
2022-10-29T05:54:53.851Z,94.65
2022-10-29T05:57:22.572Z,94.22
2022-10-29T05:59:51.312Z,93.89
2022-10-29T06:02:21.115Z,94.21
2022-10-29T06:04:51.692Z,94.74
2022-10-29T06:07:25.161Z,94.70
2022-10-29T06:09:53.892Z,94.80
2022-10-29T06:12:52.759Z,94.33
2022-10-29T06:15:23.037Z,93.98
2022-10-29T06:18:19.160Z,93.77
2022-10-29T06:20:49.734Z,94.51
2022-10-29T06:23:18.906Z,94.67
2022-10-29T06:25:48.404Z,94.85
2022-10-29T06:28:22.632Z,94.65
2022-10-29T06:30:52.785Z,94.60
2022-10-29T06:33:23.185Z,94.37
2022-10-29T06:35:53.334Z,94.60
2022-10-29T06:38:21.992Z,94.65
2022-10-29T06:40:54.794Z,94.63
2022-10-29T06:43:23.763Z,94.82
2022-10-29T06:45:59.080Z,94.89
2022-10-29T06:48:27.860Z,94.92
2022-10-29T06:51:00.437Z,94.89
2022-10-29T06:53:29.415Z,94.90
2022-10-29T06:56:00.207Z,95.08
2022-10-29T06:58:29.874Z,94.67
2022-10-29T07:01:01.595Z,94.70
2022-10-29T07:03:32.127Z,95.06
2022-10-29T07:06:02.388Z,95.08
2022-10-29T07:08:40.124Z,94.91
2022-10-29T07:11:10.639Z,95.04
2022-10-29T07:13:40.102Z,95.03
2022-10-29T07:16:10.198Z,95.13
2022-10-29T07:18:39.076Z,95.02
2022-10-29T07:21:10.560Z,95.16
2022-10-29T07:23:42.499Z,95.40
2022-10-29T07:26:13.779Z,95.33
2022-10-29T07:28:42.757Z,95.58
2022-10-29T07:31:11.960Z,95.52
2022-10-29T07:33:41.125Z,95.40
2022-10-29T07:36:11.715Z,95.59
2022-10-29T07:38:40.462Z,95.54
2022-10-29T07:41:09.120Z,95.54
2022-10-29T07:43:37.692Z,95.58
2022-10-29T07:46:06.724Z,95.49
2022-10-29T07:48:35.531Z,95.54
2022-10-29T07:51:04.259Z,95.48
2022-10-29T07:53:34.397Z,95.45
2022-10-29T07:56:03.090Z,95.46
2022-10-29T07:58:31.809Z,95.53
2022-10-29T08:01:01.854Z,95.57
2022-10-29T08:03:30.583Z,95.85
2022-10-29T08:05:59.568Z,95.67
2022-10-29T08:08:28.263Z,95.73
2022-10-29T08:11:03.309Z,95.81
2022-10-29T08:13:32.584Z,95.81
2022-10-29T08:16:01.849Z,95.62
2022-10-29T08:18:30.477Z,95.65
2022-10-29T08:20:59.111Z,95.66
2022-10-29T08:23:28.718Z,95.80
2022-10-29T08:25:59.622Z,96.14
2022-10-29T08:28:33.182Z,96.32
2022-10-29T08:31:04.685Z,97.01
2022-10-29T08:33:33.405Z,96.91
2022-10-29T08:36:02.106Z,96.70
2022-10-29T08:38:30.659Z,96.04
2022-10-29T08:41:28.940Z,95.47
2022-10-29T08:44:26.989Z,95.72
2022-10-29T08:47:08.007Z,95.92
2022-10-29T08:49:43.731Z,95.78
2022-10-29T08:52:20.282Z,95.11
2022-10-29T08:55:01.600Z,94.39
2022-10-29T08:57:39.306Z,93.48
2022-10-29T09:00:18.108Z,93.35
2022-10-29T09:02:46.990Z,92.03
2022-10-29T09:05:18.515Z,91.95
2022-10-29T09:08:16.077Z,91.45
2022-10-29T09:10:55.235Z,91.12
2022-10-29T09:13:45.323Z,91.39
2022-10-29T09:16:36.096Z,90.19
2022-10-29T09:19:34.122Z,90.27
2022-10-29T09:22:18.601Z,89.26
2022-10-29T09:25:04.532Z,88.72
2022-10-29T09:27:47.751Z,89.39
2022-10-29T09:30:21.280Z,88.86
2022-10-29T09:33:01.687Z,89.22
2022-10-29T09:35:40.669Z,89.27
2022-10-29T09:38:19.953Z,89.90
2022-10-29T09:40:51.617Z,89.95
2022-10-29T09:43:39.003Z,90.74
2022-10-29T09:46:22.054Z,90.39
2022-10-29T09:51:52.620Z,88.86
2022-10-29T09:54:22.765Z,86.26
2022-10-29T09:56:54.951Z,84.84
2022-10-29T09:59:33.782Z,84.51
2022-10-29T10:02:03.596Z,83.55
2022-10-29T10:04:45.998Z,83.46
2022-10-29T10:07:21.169Z,83.37
2022-10-29T10:09:57.216Z,84.24
2022-10-29T10:12:29.264Z,84.14
2022-10-29T10:15:20.393Z,83.84
2022-10-29T10:17:59.357Z,84.35
2022-10-29T10:20:39.302Z,84.68
2022-10-29T10:23:25.205Z,84.11
2022-10-29T10:26:00.282Z,85.12
2022-10-29T10:28:35.506Z,84.99
2022-10-29T10:31:16.196Z,85.17
2022-10-29T10:33:54.462Z,84.73
2022-10-29T10:36:27.680Z,85.06
2022-10-29T10:39:00.340Z,82.79
2022-10-29T10:41:35.271Z,81.72
2022-10-29T10:44:06.558Z,80.98
2022-10-29T10:46:41.702Z,80.52
2022-10-29T10:49:18.179Z,80.91
2022-10-29T10:51:52.237Z,83.14
2022-10-29T10:54:36.956Z,81.51
2022-10-29T10:57:21.979Z,80.24
2022-10-29T11:00:03.405Z,80.17
2022-10-29T11:03:10.939Z,79.19
2022-10-29T11:05:47.804Z,80.90
2022-10-29T11:08:25.538Z,82.01
2022-10-29T11:10:58.026Z,78.96
2022-10-29T11:13:32.596Z,77.94
2022-10-29T11:16:14.127Z,78.57
2022-10-29T11:18:56.412Z,76.95
2022-10-29T11:21:34.386Z,78.22
2022-10-29T11:24:12.297Z,78.02
2022-10-29T11:26:48.043Z,78.57
2022-10-29T11:29:25.944Z,77.99
2022-10-29T11:32:06.303Z,79.17
2022-10-29T11:34:51.839Z,78.91
2022-10-29T11:37:31.297Z,79.75
2022-10-29T11:40:15.767Z,79.90
2022-10-29T11:42:49.063Z,79.53
2022-10-29T11:45:32.234Z,79.14
2022-10-29T11:48:21.908Z,80.07
2022-10-29T11:51:05.511Z,78.88
2022-10-29T11:54:02.218Z,79.12
2022-10-29T11:56:52.810Z,79.33
2022-10-29T11:59:38.977Z,78.64
2022-10-29T12:02:28.324Z,78.67
2022-10-29T12:05:06.862Z,78.61
2022-10-29T12:07:59.297Z,79.60
2022-10-29T12:10:48.939Z,79.37
2022-10-29T12:13:39.498Z,78.94
2022-10-29T12:16:33.076Z,76.58
2022-10-29T12:19:29.394Z,78.81
2022-10-29T12:22:12.982Z,79.04
2022-10-29T12:25:05.514Z,79.78
2022-10-29T12:27:50.683Z,79.38
2022-10-29T12:30:24.366Z,79.18
2022-10-29T12:33:06.810Z,79.40
2022-10-29T12:35:47.196Z,79.50
2022-10-29T12:38:39.321Z,79.16
2022-10-29T12:41:16.778Z,79.86
2022-10-29T12:43:47.095Z,79.59
2022-10-29T12:46:29.881Z,79.92
2022-10-29T12:49:12.775Z,80.87
2022-10-29T12:51:51.284Z,81.20
2022-10-29T12:54:37.989Z,81.03
2022-10-29T12:57:24.411Z,81.17
2022-10-29T12:59:53.122Z,81.52
2022-10-29T13:02:45.135Z,81.19
2022-10-29T13:05:38.265Z,81.68
2022-10-29T13:08:36.380Z,82.22
2022-10-29T13:11:23.575Z,81.68
2022-10-29T13:13:58.854Z,82.98
2022-10-29T13:16:32.241Z,83.27
2022-10-29T13:19:39.803Z,83.88
2022-10-29T13:22:56.630Z,83.98
2022-10-29T13:25:49.903Z,83.45
2022-10-29T13:28:52.917Z,83.73
2022-10-29T13:31:50.469Z,84.45
2022-10-29T13:34:57.015Z,84.42
2022-10-29T13:37:56.325Z,84.45
2022-10-29T13:41:04.338Z,84.94
2022-10-29T13:43:34.676Z,85.39
2022-10-29T13:46:46.029Z,85.51
2022-10-29T13:49:21.592Z,86.13
2022-10-29T13:52:06.854Z,86.98
2022-10-29T13:54:48.126Z,87.43
2022-10-29T13:57:25.201Z,87.63
2022-10-29T14:00:02.116Z,87.94
2022-10-29T14:02:55.777Z,88.45
2022-10-29T14:05:30.129Z,89.22
2022-10-29T14:08:08.544Z,89.37
2022-10-29T14:10:47.515Z,89.69
2022-10-29T14:13:31.560Z,89.78
2022-10-29T14:16:10.300Z,90.43
2022-10-29T14:18:41.327Z,90.15
2022-10-29T14:21:18.070Z,90.76
2022-10-29T14:24:03.685Z,90.29
2022-10-29T14:26:35.124Z,90.67
2022-10-29T14:29:18.625Z,90.63
2022-10-29T14:31:48.179Z,90.67
2022-10-29T14:34:28.993Z,90.91
2022-10-29T14:37:04.626Z,91.22
2022-10-29T14:39:57.145Z,90.82
2022-10-29T14:42:33.770Z,90.97
2022-10-29T14:45:06.428Z,91.37
2022-10-29T14:47:38.836Z,91.83
2022-10-29T14:50:19.069Z,91.36
2022-10-29T14:52:53.915Z,91.42
2022-10-29T14:55:29.394Z,91.72
2022-10-29T14:58:06.777Z,91.72
2022-10-29T15:00:38.926Z,91.76
2022-10-29T15:03:09.461Z,92.03
2022-10-29T15:05:39.504Z,92.56
2022-10-29T15:08:19.195Z,92.43
2022-10-29T15:10:52.841Z,92.37
2022-10-29T15:13:35.358Z,92.21
2022-10-29T15:16:08.197Z,93.15
2022-10-29T15:18:38.941Z,93.14
2022-10-29T15:21:07.929Z,93.40
2022-10-29T15:23:44.444Z,93.10
2022-10-29T15:26:21.026Z,92.96
2022-10-29T15:28:53.761Z,92.87
2022-10-29T15:31:25.784Z,93.00
2022-10-29T15:33:57.144Z,93.44
2022-10-29T15:36:25.798Z,93.19
2022-10-29T15:39:23.095Z,93.54
2022-10-29T15:41:53.972Z,94.20
2022-10-29T15:44:40.780Z,94.47
2022-10-29T15:47:28.825Z,94.39
2022-10-29T15:49:57.522Z,94.45
2022-10-29T15:52:33.270Z,94.39
2022-10-29T15:55:04.322Z,93.57
2022-10-29T15:57:35.152Z,93.99
2022-10-29T16:00:07.581Z,94.26
2022-10-29T16:02:37.325Z,94.00
2022-10-29T16:05:07.381Z,94.18
2022-10-29T16:07:37.187Z,94.05
2022-10-29T16:10:07.194Z,94.12
2022-10-29T16:12:37.229Z,94.31
2022-10-29T16:15:06.913Z,94.20
2022-10-29T16:17:35.578Z,94.48
2022-10-29T16:20:04.427Z,94.49
2022-10-29T16:22:33.025Z,94.33
2022-10-29T16:25:01.744Z,94.53
2022-10-29T16:27:30.335Z,94.04
2022-10-29T16:30:00.373Z,94.53
2022-10-29T16:32:28.980Z,94.15
2022-10-29T16:34:58.409Z,93.78
2022-10-29T16:37:27.077Z,94.22
2022-10-29T16:39:56.260Z,93.83
2022-10-29T16:42:36.664Z,93.81
2022-10-29T16:45:13.209Z,93.66
2022-10-29T16:47:42.726Z,93.46
2022-10-29T16:50:18.301Z,93.04
2022-10-29T16:52:47.946Z,93.43
2022-10-29T16:55:17.879Z,93.23
2022-10-29T16:57:48.010Z,93.63
2022-10-29T17:00:21.488Z,93.13
2022-10-29T17:02:51.660Z,93.82
2022-10-29T17:05:21.212Z,93.32
2022-10-29T17:07:56.210Z,93.46
2022-10-29T17:10:26.473Z,93.12
2022-10-29T17:12:55.852Z,93.41
2022-10-29T17:15:26.652Z,93.13
2022-10-29T17:17:57.520Z,93.38
2022-10-29T17:20:26.786Z,93.32
2022-10-29T17:22:55.480Z,93.24
2022-10-29T17:25:24.124Z,93.14
2022-10-29T17:27:53.494Z,93.49
2022-10-29T17:30:23.011Z,93.10
2022-10-29T17:32:53.196Z,93.51
2022-10-29T17:35:21.930Z,93.64
2022-10-29T17:37:50.894Z,93.74
2022-10-29T17:40:19.537Z,93.91
2022-10-29T17:42:48.417Z,93.33
2022-10-29T17:45:20.442Z,93.14
2022-10-29T17:47:49.079Z,92.90
2022-10-29T17:50:19.271Z,92.96
2022-10-29T17:52:47.898Z,93.24
2022-10-29T17:55:17.024Z,93.06
2022-10-29T17:57:45.698Z,93.32
2022-10-29T18:00:15.818Z,93.60
2022-10-29T18:02:44.554Z,93.20
2022-10-29T18:05:13.542Z,93.42
2022-10-29T18:07:44.134Z,93.38
2022-10-29T18:10:16.876Z,93.07
2022-10-29T18:12:46.684Z,93.30
2022-10-29T18:15:15.570Z,92.85
2022-10-29T18:17:44.519Z,92.80
2022-10-29T18:20:14.468Z,92.82
2022-10-29T18:22:45.034Z,92.82
2022-10-29T18:25:14.342Z,92.54
2022-10-29T18:27:43.208Z,92.80
2022-10-29T18:30:13.337Z,92.37
2022-10-29T18:32:42.575Z,92.39
2022-10-29T18:35:12.155Z,92.97
2022-10-29T18:37:41.309Z,92.56
2022-10-29T18:40:14.421Z,92.46
2022-10-29T18:42:43.422Z,92.36
2022-10-29T18:45:12.941Z,92.57
2022-10-29T18:47:42.778Z,92.40
2022-10-29T18:50:12.127Z,92.40
2022-10-29T18:52:42.050Z,93.26
2022-10-29T18:55:12.714Z,92.50
2022-10-29T18:57:41.488Z,92.87
2022-10-29T19:00:12.150Z,92.86
2022-10-29T19:02:41.383Z,92.66
2022-10-29T19:05:10.838Z,92.73
2022-10-29T19:07:40.624Z,92.56
2022-10-29T19:10:12.065Z,92.47
2022-10-29T19:12:41.016Z,92.22
2022-10-29T19:15:10.888Z,91.84
2022-10-29T19:17:39.759Z,91.86
2022-10-29T19:20:09.387Z,91.74
2022-10-29T19:22:39.520Z,91.67
2022-10-29T19:25:48.099Z,91.25
2022-10-29T19:28:17.137Z,91.27
2022-10-29T19:30:45.939Z,91.26
2022-10-29T19:33:14.686Z,90.85
2022-10-29T19:35:43.509Z,91.26
2022-10-29T19:38:26.134Z,90.69
2022-10-29T19:41:53.282Z,90.71
2022-10-29T19:44:22.307Z,90.92
2022-10-29T19:46:51.510Z,90.54
2022-10-29T19:49:21.880Z,90.70
2022-10-29T19:54:54.924Z,90.41
2022-10-29T19:57:31.566Z,90.56
2022-10-29T20:00:00.299Z,90.84
2022-10-29T20:02:31.420Z,90.82
2022-10-29T20:05:00.176Z,90.57
2022-10-29T20:07:29.046Z,90.75
2022-10-29T20:09:58.226Z,90.53
2022-10-29T20:12:28.681Z,90.56
2022-10-29T20:14:57.845Z,90.61
2022-10-29T20:17:26.833Z,90.61
2022-10-29T20:19:55.653Z,90.32
2022-10-29T20:22:26.406Z,90.28
2022-10-29T20:24:55.159Z,90.27
2022-10-29T20:27:23.767Z,90.12
2022-10-29T20:29:54.203Z,89.91
2022-10-29T20:32:23.041Z,90.26
2022-10-29T20:34:52.315Z,90.01
2022-10-29T20:37:21.409Z,90.05
2022-10-29T20:39:50.116Z,89.73
2022-10-29T20:42:19.070Z,89.73
2022-10-29T20:44:50.383Z,89.70
2022-10-29T20:47:20.693Z,89.92
2022-10-29T20:49:49.491Z,89.49
2022-10-29T20:52:18.308Z,89.72
2022-10-29T20:54:46.948Z,89.91
2022-10-29T20:57:15.647Z,89.66
2022-10-29T20:59:44.218Z,90.33
2022-10-29T21:02:13.326Z,89.94
2022-10-29T21:04:43.439Z,90.07
2022-10-29T21:07:12.167Z,90.06
2022-10-29T21:09:40.916Z,90.42
2022-10-29T21:12:09.629Z,90.10
2022-10-29T21:14:38.281Z,90.09
2022-10-29T21:17:07.085Z,89.80
2022-10-29T21:19:35.739Z,89.46
2022-10-29T21:22:06.008Z,89.70
2022-10-29T21:24:35.619Z,89.83
2022-10-29T21:27:04.619Z,90.04
2022-10-29T21:29:33.527Z,90.21
2022-10-29T21:32:02.242Z,90.14
2022-10-29T21:34:30.842Z,89.68
2022-10-29T21:36:59.495Z,89.68
2022-10-29T21:39:29.970Z,89.98
2022-10-29T21:41:58.756Z,90.01
2022-10-29T21:44:27.410Z,89.65
2022-10-29T21:46:58.971Z,89.93
2022-10-29T21:49:27.685Z,89.80
2022-10-29T21:51:56.355Z,89.85
2022-10-29T21:54:28.256Z,89.78
2022-10-29T21:56:58.578Z,89.94
2022-10-29T21:59:27.259Z,90.04
2022-10-29T22:01:56.083Z,89.99
2022-10-29T22:04:24.865Z,90.04
2022-10-29T22:06:53.575Z,89.87
2022-10-29T22:09:22.266Z,90.12
2022-10-29T22:11:50.958Z,90.06
2022-10-29T22:14:21.010Z,90.74
2022-10-29T22:16:49.698Z,90.58
2022-10-29T22:19:20.028Z,90.64
2022-10-29T22:21:48.627Z,90.53
2022-10-29T22:24:17.406Z,90.80
2022-10-29T22:26:46.333Z,90.61
2022-10-29T22:29:15.059Z,90.57
2022-10-29T22:31:45.346Z,90.54
2022-10-29T22:34:14.062Z,89.85
2022-10-29T22:36:42.953Z,90.39
2022-10-29T22:39:12.013Z,90.32
2022-10-29T22:41:40.823Z,89.98
2022-10-29T22:44:09.620Z,90.05
2022-10-29T22:46:38.284Z,90.59
2022-10-29T22:49:08.697Z,90.16
2022-10-29T22:51:37.390Z,90.33
2022-10-29T22:54:06.775Z,91.07
2022-10-29T22:56:38.473Z,90.69
2022-10-29T22:59:08.463Z,90.25
2022-10-29T23:01:42.236Z,90.49
2022-10-29T23:04:15.804Z,90.16
2022-10-29T23:06:47.831Z,90.40
2022-10-29T23:09:16.563Z,90.22
2022-10-29T23:11:45.229Z,90.26
2022-10-29T23:14:16.772Z,90.48
2022-10-29T23:16:45.432Z,90.23
2022-10-29T23:19:15.553Z,90.19
2022-10-29T23:21:44.232Z,90.49
2022-10-29T23:24:13.273Z,90.17
2022-10-29T23:26:41.950Z,90.42
2022-10-29T23:29:10.690Z,90.37
2022-10-29T23:31:39.450Z,90.18
2022-10-29T23:34:09.065Z,90.28
2022-10-29T23:36:39.210Z,90.41
2022-10-29T23:39:07.934Z,90.98
2022-10-29T23:41:36.725Z,91.05
2022-10-29T23:44:05.585Z,91.15
2022-10-29T23:46:34.321Z,91.18
2022-10-29T23:49:02.955Z,90.94
2022-10-29T23:51:31.670Z,91.34
2022-10-29T23:54:01.952Z,91.50
2022-10-29T23:56:30.681Z,91.44
2022-10-29T23:58:59.326Z,90.93
